Lower Kalskag, Alaska
Current Conditions -  °F | °C
As of 3:56 AM on Monday 22 Dec 2014 (Local Time) from PALG Reporting Station
Clear Clear  
Wind Chill: -10°   Ceiling: Unl
Heat Index: -10°   Visibility: 10mi
Dew Point: -15°   Wind: 0mph
Humidity: 78%   Direction: NA
Pressure: 29.79"   Gusts: NA
Location:  61.52°N, 160.38°W
Report Text: PALG 221256Z AUTO 00000KT 10SM CLR M23/M26 A2979 RMK AO2 TSNO T12331261 SLP093 $
Loading
Personal Weather Stations






























Interactive Weather Map New forecast layout! Learn more

10-Day Weather Forecast

Advertisements
Track Severe Weather on mobile